sensor_id;sensor_type;location;lat;lon;timestamp;pressure;altitude;pressure_sealevel;temperature;humidity
22649;BME280;11491;41.942;24.220;2023-04-15T00:02:14;89173.25;;;5.83;100.00
22649;BME280;11491;41.942;24.220;2023-04-15T00:04:46;89153.94;;;5.82;100.00
22649;BME280;11491;41.942;24.220;2023-04-15T00:07:15;89119.88;;;5.72;99.52
22649;BME280;11491;41.942;24.220;2023-04-15T00:09:45;89073.94;;;5.56;96.90
22649;BME280;11491;41.942;24.220;2023-04-15T00:12:14;89035.81;;;5.48;95.56
22649;BME280;11491;41.942;24.220;2023-04-15T00:14:47;89152.72;;;6.57;93.27
22649;BME280;11491;41.942;24.220;2023-04-15T00:19:52;89050.84;;;6.21;90.30
22649;BME280;11491;41.942;24.220;2023-04-15T00:22:48;89115.44;;;6.82;92.45
22649;BME280;11491;41.942;24.220;2023-04-15T00:25:31;89130.31;;;6.71;93.53
22649;BME280;11491;41.942;24.220;2023-04-15T00:33:29;89180.34;;;7.25;89.68
22649;BME280;11491;41.942;24.220;2023-04-15T00:35:57;89134.00;;;6.94;89.50
22649;BME280;11491;41.942;24.220;2023-04-15T00:38:27;89150.84;;;7.30;91.09
22649;BME280;11491;41.942;24.220;2023-04-15T00:41:12;89108.63;;;7.12;87.64
22649;BME280;11491;41.942;24.220;2023-04-15T00:43:39;89171.03;;;7.47;91.19
22649;BME280;11491;41.942;24.220;2023-04-15T00:46:08;89162.53;;;7.41;92.58
22649;BME280;11491;41.942;24.220;2023-04-15T00:49:25;89039.84;;;6.63;93.38
22649;BME280;11491;41.942;24.220;2023-04-15T00:51:53;89065.97;;;6.77;92.74
22649;BME280;11491;41.942;24.220;2023-04-15T00:54:24;89099.81;;;6.64;95.19
22649;BME280;11491;41.942;24.220;2023-04-15T00:56:57;89090.63;;;6.62;95.84
22649;BME280;11491;41.942;24.220;2023-04-15T00:59:31;89130.25;;;6.83;96.66
22649;BME280;11491;41.942;24.220;2023-04-15T01:02:29;89127.25;;;6.68;97.77
22649;BME280;11491;41.942;24.220;2023-04-15T01:05:08;89074.28;;;6.19;98.37
22649;BME280;11491;41.942;24.220;2023-04-15T01:07:43;89046.91;;;5.91;98.59
22649;BME280;11491;41.942;24.220;2023-04-15T01:10:17;89011.63;;;5.50;99.24
22649;BME280;11491;41.942;24.220;2023-04-15T01:12:51;89007.88;;;5.51;99.35
22649;BME280;11491;41.942;24.220;2023-04-15T01:18:18;89016.47;;;5.60;97.51
22649;BME280;11491;41.942;24.220;2023-04-15T01:21:17;89116.25;;;6.42;95.95
22649;BME280;11491;41.942;24.220;2023-04-15T01:23:48;89093.56;;;6.04;94.15
22649;BME280;11491;41.942;24.220;2023-04-15T01:26:17;89047.41;;;5.44;95.30
22649;BME280;11491;41.942;24.220;2023-04-15T01:28:47;89036.19;;;5.34;95.73
22649;BME280;11491;41.942;24.220;2023-04-15T01:31:15;89158.13;;;6.20;95.18
22649;BME280;11491;41.942;24.220;2023-04-15T01:33:42;89157.88;;;5.89;96.37
22649;BME280;11491;41.942;24.220;2023-04-15T01:36:09;89167.72;;;5.76;97.44
22649;BME280;11491;41.942;24.220;2023-04-15T01:38:37;89168.44;;;5.97;96.98
22649;BME280;11491;41.942;24.220;2023-04-15T01:41:04;89183.81;;;6.04;97.07
22649;BME280;11491;41.942;24.220;2023-04-15T01:43:51;89182.59;;;6.14;96.66
22649;BME280;11491;41.942;24.220;2023-04-15T01:46:21;89148.94;;;6.06;96.06
22649;BME280;11491;41.942;24.220;2023-04-15T01:48:48;89185.44;;;6.21;93.84
22649;BME280;11491;41.942;24.220;2023-04-15T01:51:16;89183.56;;;6.09;94.20
22649;BME280;11491;41.942;24.220;2023-04-15T01:53:42;89181.31;;;6.23;94.41
22649;BME280;11491;41.942;24.220;2023-04-15T01:56:10;89180.03;;;6.17;94.09
22649;BME280;11491;41.942;24.220;2023-04-15T01:58:37;89184.22;;;6.18;92.90
22649;BME280;11491;41.942;24.220;2023-04-15T02:01:25;89186.53;;;6.20;92.88
22649;BME280;11491;41.942;24.220;2023-04-15T02:03:52;89182.75;;;6.33;90.99
22649;BME280;11491;41.942;24.220;2023-04-15T02:06:19;89190.84;;;6.37;89.86
22649;BME280;11491;41.942;24.220;2023-04-15T02:08:47;89185.09;;;6.22;89.98
22649;BME280;11491;41.942;24.220;2023-04-15T02:11:14;89183.44;;;6.06;91.04
22649;BME280;11491;41.942;24.220;2023-04-15T02:13:55;89166.53;;;5.86;92.18
22649;BME280;11491;41.942;24.220;2023-04-15T02:16:33;89202.69;;;6.02;90.91
22649;BME280;11491;41.942;24.220;2023-04-15T02:19:16;89204.38;;;6.07;88.80
22649;BME280;11491;41.942;24.220;2023-04-15T02:21:57;89198.38;;;5.98;88.89
22649;BME280;11491;41.942;24.220;2023-04-15T02:24:25;89195.91;;;5.80;90.24
22649;BME280;11491;41.942;24.220;2023-04-15T02:26:52;89202.78;;;5.81;89.77
22649;BME280;11491;41.942;24.220;2023-04-15T02:29:22;89203.88;;;5.80;89.50
22649;BME280;11491;41.942;24.220;2023-04-15T02:31:50;89209.19;;;5.80;89.50
22649;BME280;11491;41.942;24.220;2023-04-15T02:34:17;89203.66;;;5.86;88.09
22649;BME280;11491;41.942;24.220;2023-04-15T02:36:44;89205.00;;;5.79;88.30
22649;BME280;11491;41.942;24.220;2023-04-15T02:39:14;89182.94;;;5.30;89.67
22649;BME280;11491;41.942;24.220;2023-04-15T02:41:43;89198.53;;;5.44;88.76
22649;BME280;11491;41.942;24.220;2023-04-15T02:44:18;89099.22;;;4.71;88.54
22649;BME280;11491;41.942;24.220;2023-04-15T02:49:59;89186.81;;;5.32;88.80
22649;BME280;11491;41.942;24.220;2023-04-15T02:55:33;89048.72;;;4.30;90.30
22649;BME280;11491;41.942;24.220;2023-04-15T02:58:01;89143.22;;;4.96;88.23
22649;BME280;11491;41.942;24.220;2023-04-15T03:00:28;89157.16;;;5.06;87.97
22649;BME280;11491;41.942;24.220;2023-04-15T03:02:57;89180.34;;;5.09;87.78
22649;BME280;11491;41.942;24.220;2023-04-15T03:05:27;89178.88;;;4.99;88.37
22649;BME280;11491;41.942;24.220;2023-04-15T03:07:55;89170.53;;;4.76;89.23
22649;BME280;11491;41.942;24.220;2023-04-15T03:10:22;89195.94;;;4.89;89.55
22649;BME280;11491;41.942;24.220;2023-04-15T03:12:50;89088.78;;;3.99;90.08
22649;BME280;11491;41.942;24.220;2023-04-15T03:15:21;89148.72;;;4.37;89.45
22649;BME280;11491;41.942;24.220;2023-04-15T03:17:48;89184.22;;;4.78;87.77
22649;BME280;11491;41.942;24.220;2023-04-15T03:20:16;89220.44;;;4.86;88.10
22649;BME280;11491;41.942;24.220;2023-04-15T03:22:48;89206.59;;;4.47;89.72
22649;BME280;11491;41.942;24.220;2023-04-15T03:25:19;89153.00;;;4.08;90.53
22649;BME280;11491;41.942;24.220;2023-04-15T03:27:47;89090.53;;;3.74;89.25
22649;BME280;11491;41.942;24.220;2023-04-15T03:30:15;89214.84;;;4.67;88.31
22649;BME280;11491;41.942;24.220;2023-04-15T03:32:43;89247.34;;;4.55;89.09
22649;BME280;11491;41.942;24.220;2023-04-15T03:35:11;89132.53;;;3.76;88.79
22649;BME280;11491;41.942;24.220;2023-04-15T03:37:38;89123.41;;;3.64;89.44
22649;BME280;11491;41.942;24.220;2023-04-15T03:40:08;89172.16;;;4.05;89.65
22649;BME280;11491;41.942;24.220;2023-04-15T03:42:49;89133.75;;;3.78;89.54
22649;BME280;11491;41.942;24.220;2023-04-15T03:45:18;89255.41;;;4.59;89.24
22649;BME280;11491;41.942;24.220;2023-04-15T03:47:52;89165.72;;;3.64;89.29
22649;BME280;11491;41.942;24.220;2023-04-15T03:50:22;89117.94;;;3.40;88.91
22649;BME280;11491;41.942;24.220;2023-04-15T03:55:40;89133.19;;;3.43;89.85
22649;BME280;11491;41.942;24.220;2023-04-15T03:58:24;89126.41;;;3.24;89.85
22649;BME280;11491;41.942;24.220;2023-04-15T04:01:38;89151.78;;;3.55;90.68
22649;BME280;11491;41.942;24.220;2023-04-15T04:04:17;89136.25;;;3.45;90.28
22649;BME280;11491;41.942;24.220;2023-04-15T04:12:16;89254.59;;;4.37;90.27
22649;BME280;11491;41.942;24.220;2023-04-15T04:14:44;89240.00;;;4.31;89.98
22649;BME280;11491;41.942;24.220;2023-04-15T04:17:32;89198.16;;;4.03;89.13
22649;BME280;11491;41.942;24.220;2023-04-15T04:20:35;89279.97;;;4.38;88.72
22649;BME280;11491;41.942;24.220;2023-04-15T04:23:17;89223.88;;;4.24;88.85
22649;BME280;11491;41.942;24.220;2023-04-15T04:25:44;89216.78;;;4.16;89.60
22649;BME280;11491;41.942;24.220;2023-04-15T04:28:40;89208.75;;;4.03;90.14
22649;BME280;11491;41.942;24.220;2023-04-15T04:34:09;89153.59;;;3.63;90.19
22649;BME280;11491;41.942;24.220;2023-04-15T04:36:42;89278.38;;;4.67;88.94
22649;BME280;11491;41.942;24.220;2023-04-15T04:39:31;89230.28;;;4.44;88.88
22649;BME280;11491;41.942;24.220;2023-04-15T04:42:27;89253.53;;;4.59;88.74
22649;BME280;11491;41.942;24.220;2023-04-15T04:45:08;89164.63;;;3.95;89.39
22649;BME280;11491;41.942;24.220;2023-04-15T04:47:36;89234.22;;;4.59;89.02
22649;BME280;11491;41.942;24.220;2023-04-15T04:50:25;89180.88;;;4.06;89.28
22649;BME280;11491;41.942;24.220;2023-04-15T04:55:44;89256.03;;;4.97;89.86
22649;BME280;11491;41.942;24.220;2023-04-15T08:50:14;89370.06;;;13.36;39.35
22649;BME280;11491;41.942;24.220;2023-04-15T08:53:04;89250.00;;;12.78;38.82
22649;BME280;11491;41.942;24.220;2023-04-15T08:55:33;89238.97;;;12.90;39.17
22649;BME280;11491;41.942;24.220;2023-04-15T08:58:05;89338.41;;;13.63;38.16
22649;BME280;11491;41.942;24.220;2023-04-15T09:00:32;89239.22;;;12.70;38.70
22649;BME280;11491;41.942;24.220;2023-04-15T09:02:59;89237.25;;;13.23;40.76
22649;BME280;11491;41.942;24.220;2023-04-15T09:05:27;89250.13;;;13.54;38.83
22649;BME280;11491;41.942;24.220;2023-04-15T09:07:57;89251.63;;;13.48;37.50
22649;BME280;11491;41.942;24.220;2023-04-15T09:10:26;89350.59;;;14.23;38.02
22649;BME280;11491;41.942;24.220;2023-04-15T09:12:55;89270.56;;;13.77;36.82
22649;BME280;11491;41.942;24.220;2023-04-15T09:15:25;89254.41;;;13.70;34.88
22649;BME280;11491;41.942;24.220;2023-04-15T09:49:19;89355.84;;;15.28;35.45
22649;BME280;11491;41.942;24.220;2023-04-15T09:51:48;89337.75;;;15.15;35.64
22649;BME280;11491;41.942;24.220;2023-04-15T10:00:40;89340.13;;;16.62;30.27
22649;BME280;11491;41.942;24.220;2023-04-15T10:03:31;89255.22;;;16.10;31.52
22649;BME280;11491;41.942;24.220;2023-04-15T10:27:02;89318.22;;;16.52;33.69
22649;BME280;11491;41.942;24.220;2023-04-15T10:29:30;89287.88;;;17.00;36.36
22649;BME280;11491;41.942;24.220;2023-04-15T10:31:58;89309.84;;;17.55;35.08
22649;BME280;11491;41.942;24.220;2023-04-15T10:34:26;89278.41;;;17.30;33.88
22649;BME280;11491;41.942;24.220;2023-04-15T10:36:54;89322.66;;;17.47;31.50
22649;BME280;11491;41.942;24.220;2023-04-15T10:39:41;89220.78;;;16.43;34.31
22649;BME280;11491;41.942;24.220;2023-04-15T10:47:56;89271.31;;;17.43;36.29
22649;BME280;11491;41.942;24.220;2023-04-15T10:50:25;89248.81;;;17.57;33.06
22649;BME280;11491;41.942;24.220;2023-04-15T10:52:52;89301.03;;;17.89;30.67
22649;BME280;11491;41.942;24.220;2023-04-15T10:55:20;89315.38;;;17.85;31.66
22649;BME280;11491;41.942;24.220;2023-04-15T10:57:51;89267.63;;;17.68;31.53
22649;BME280;11491;41.942;24.220;2023-04-15T11:03:20;89220.34;;;16.48;31.82
22649;BME280;11491;41.942;24.220;2023-04-15T11:23:12;89311.53;;;17.79;33.34
22649;BME280;11491;41.942;24.220;2023-04-15T11:25:40;89302.75;;;18.44;31.64
22649;BME280;11491;41.942;24.220;2023-04-15T11:28:07;89311.34;;;18.39;33.52
22649;BME280;11491;41.942;24.220;2023-04-15T11:30:35;89275.78;;;18.37;31.35
22649;BME280;11491;41.942;24.220;2023-04-15T11:33:04;89308.69;;;19.24;32.94
22649;BME280;11491;41.942;24.220;2023-04-15T11:35:31;89306.44;;;19.19;30.12
22649;BME280;11491;41.942;24.220;2023-04-15T11:38:02;89269.03;;;18.21;29.45
22649;BME280;11491;41.942;24.220;2023-04-15T11:40:31;89304.66;;;18.78;32.00
22649;BME280;11491;41.942;24.220;2023-04-15T11:43:04;89205.72;;;18.15;29.72
22649;BME280;11491;41.942;24.220;2023-04-15T11:45:30;89269.94;;;18.42;33.23
22649;BME280;11491;41.942;24.220;2023-04-15T11:48:07;89261.25;;;18.85;30.57
22649;BME280;11491;41.942;24.220;2023-04-15T11:50:34;89232.94;;;19.17;28.92
22649;BME280;11491;41.942;24.220;2023-04-15T11:53:02;89306.47;;;19.66;29.83
22649;BME280;11491;41.942;24.220;2023-04-15T11:55:40;89293.75;;;19.86;30.70
22649;BME280;11491;41.942;24.220;2023-04-15T11:58:09;89305.88;;;20.01;30.30
22649;BME280;11491;41.942;24.220;2023-04-15T12:00:36;89296.41;;;20.10;28.72
22649;BME280;11491;41.942;24.220;2023-04-15T12:03:18;89287.81;;;20.15;31.96
22649;BME280;11491;41.942;24.220;2023-04-15T12:06:18;89307.75;;;19.34;28.64
22649;BME280;11491;41.942;24.220;2023-04-15T12:09:10;89295.97;;;19.21;28.72
22649;BME280;11491;41.942;24.220;2023-04-15T12:11:46;89313.75;;;18.60;29.76
22649;BME280;11491;41.942;24.220;2023-04-15T12:14:20;89253.66;;;17.77;30.57
22649;BME280;11491;41.942;24.220;2023-04-15T12:16:52;89319.28;;;17.77;32.62
22649;BME280;11491;41.942;24.220;2023-04-15T12:22:17;89213.91;;;16.94;32.27
22649;BME280;11491;41.942;24.220;2023-04-15T12:50:01;89272.31;;;17.19;28.24
22649;BME280;11491;41.942;24.220;2023-04-15T12:52:28;89234.84;;;16.79;29.26
22649;BME280;11491;41.942;24.220;2023-04-15T12:54:56;89219.59;;;17.04;29.25
22649;BME280;11491;41.942;24.220;2023-04-15T12:57:24;89313.50;;;17.75;29.08
22649;BME280;11491;41.942;24.220;2023-04-15T12:59:52;89203.63;;;17.20;29.25
22649;BME280;11491;41.942;24.220;2023-04-15T13:02:20;89273.69;;;18.17;28.34
22649;BME280;11491;41.942;24.220;2023-04-15T13:04:49;89320.72;;;18.27;29.16
22649;BME280;11491;41.942;24.220;2023-04-15T13:07:18;89304.44;;;18.30;29.01
22649;BME280;11491;41.942;24.220;2023-04-15T13:09:45;89263.47;;;17.60;30.42
22649;BME280;11491;41.942;24.220;2023-04-15T13:12:12;89299.59;;;18.49;30.39
22649;BME280;11491;41.942;24.220;2023-04-15T13:14:39;89304.25;;;18.48;29.74
22649;BME280;11491;41.942;24.220;2023-04-15T13:17:06;89274.72;;;18.61;29.19
22649;BME280;11491;41.942;24.220;2023-04-15T13:19:34;89276.00;;;18.80;31.33
22649;BME280;11491;41.942;24.220;2023-04-15T13:22:01;89312.78;;;19.08;30.53
22649;BME280;11491;41.942;24.220;2023-04-15T13:24:30;89313.34;;;19.23;30.20
22649;BME280;11491;41.942;24.220;2023-04-15T13:26:56;89312.50;;;19.77;29.94
22649;BME280;11491;41.942;24.220;2023-04-15T13:29:23;89307.63;;;19.41;29.31
22649;BME280;11491;41.942;24.220;2023-04-15T13:31:50;89306.78;;;19.21;29.92
22649;BME280;11491;41.942;24.220;2023-04-15T13:34:17;89308.38;;;18.91;29.89
22649;BME280;11491;41.942;24.220;2023-04-15T13:36:43;89303.81;;;18.19;31.12
22649;BME280;11491;41.942;24.220;2023-04-15T13:39:12;89302.94;;;18.29;31.48
22649;BME280;11491;41.942;24.220;2023-04-15T13:41:45;89298.34;;;18.26;31.41
22649;BME280;11491;41.942;24.220;2023-04-15T13:44:13;89318.91;;;17.75;33.00
22649;BME280;11491;41.942;24.220;2023-04-15T13:46:53;89320.44;;;17.80;32.74
22649;BME280;11491;41.942;24.220;2023-04-15T13:49:20;89312.22;;;17.46;35.12
22649;BME280;11491;41.942;24.220;2023-04-15T13:51:47;89297.69;;;17.29;34.58
22649;BME280;11491;41.942;24.220;2023-04-15T13:54:17;89316.53;;;16.87;35.34
22649;BME280;11491;41.942;24.220;2023-04-15T13:57:11;89330.31;;;16.96;35.63
22649;BME280;11491;41.942;24.220;2023-04-15T13:59:53;89302.81;;;16.49;36.27
22649;BME280;11491;41.942;24.220;2023-04-15T14:02:21;89321.50;;;16.92;37.68
22649;BME280;11491;41.942;24.220;2023-04-15T14:04:50;89310.66;;;17.52;36.84
22649;BME280;11491;41.942;24.220;2023-04-15T14:07:20;89321.66;;;17.27;36.66
22649;BME280;11491;41.942;24.220;2023-04-15T14:12:26;89313.16;;;16.62;37.43
22649;BME280;11491;41.942;24.220;2023-04-15T14:15:13;89206.84;;;15.75;38.22
22649;BME280;11491;41.942;24.220;2023-04-15T14:17:54;89243.56;;;16.35;38.79
22649;BME280;11491;41.942;24.220;2023-04-15T14:20:24;89302.88;;;16.42;38.53
22649;BME280;11491;41.942;24.220;2023-04-15T14:23:05;89213.84;;;15.50;38.28
22649;BME280;11491;41.942;24.220;2023-04-15T14:33:34;89191.25;;;16.14;40.59
22649;BME280;11491;41.942;24.220;2023-04-15T14:36:06;89231.63;;;16.95;37.41
22649;BME280;11491;41.942;24.220;2023-04-15T14:38:34;89230.22;;;16.73;37.48
22649;BME280;11491;41.942;24.220;2023-04-15T14:41:04;89239.84;;;17.26;36.93
22649;BME280;11491;41.942;24.220;2023-04-15T14:43:33;89312.72;;;17.82;36.62
22649;BME280;11491;41.942;24.220;2023-04-15T14:46:03;89205.25;;;17.10;36.61
22649;BME280;11491;41.942;24.220;2023-04-15T14:48:32;89309.84;;;18.30;35.71
22649;BME280;11491;41.942;24.220;2023-04-15T14:51:02;89318.38;;;18.63;35.98
22649;BME280;11491;41.942;24.220;2023-04-15T14:53:29;89311.63;;;19.33;33.43
22649;BME280;11491;41.942;24.220;2023-04-15T14:55:56;89315.00;;;19.68;33.17
22649;BME280;11491;41.942;24.220;2023-04-15T14:58:23;89286.94;;;18.08;34.43
22649;BME280;11491;41.942;24.220;2023-04-15T15:00:50;89299.91;;;18.24;36.79
22649;BME280;11491;41.942;24.220;2023-04-15T15:03:18;89244.91;;;17.62;35.94
22649;BME280;11491;41.942;24.220;2023-04-15T15:05:46;89263.78;;;17.24;37.60
22649;BME280;11491;41.942;24.220;2023-04-15T15:08:19;89269.16;;;17.24;38.44
22649;BME280;11491;41.942;24.220;2023-04-15T15:10:51;89312.16;;;17.53;37.63
22649;BME280;11491;41.942;24.220;2023-04-15T15:13:20;89308.16;;;17.68;37.60
22649;BME280;11491;41.942;24.220;2023-04-15T15:15:47;89305.34;;;17.82;37.01
22649;BME280;11491;41.942;24.220;2023-04-15T15:18:29;89308.00;;;17.44;37.29
22649;BME280;11491;41.942;24.220;2023-04-15T15:46:25;89299.28;;;15.32;39.94
22649;BME280;11491;41.942;24.220;2023-04-15T15:48:59;89240.88;;;14.93;40.36
22649;BME280;11491;41.942;24.220;2023-04-15T15:52:01;89255.47;;;14.89;41.11
22649;BME280;11491;41.942;24.220;2023-04-15T15:57:37;89194.66;;;14.23;41.79
22649;BME280;11491;41.942;24.220;2023-04-15T16:00:20;89156.25;;;13.97;41.89
22649;BME280;11491;41.942;24.220;2023-04-15T16:02:49;89177.72;;;13.97;41.68
22649;BME280;11491;41.942;24.220;2023-04-15T16:05:16;89236.13;;;14.11;42.85
22649;BME280;11491;41.942;24.220;2023-04-15T16:07:58;89282.22;;;14.17;43.28
22649;BME280;11491;41.942;24.220;2023-04-15T16:10:31;89227.94;;;13.72;42.65
22649;BME280;11491;41.942;24.220;2023-04-15T16:13:04;89212.97;;;13.71;43.33
22649;BME280;11491;41.942;24.220;2023-04-15T16:15:31;89284.56;;;14.29;42.12
22649;BME280;11491;41.942;24.220;2023-04-15T16:18:31;89209.97;;;13.90;43.90
22649;BME280;11491;41.942;24.220;2023-04-15T16:21:04;89260.78;;;14.38;42.40
22649;BME280;11491;41.942;24.220;2023-04-15T16:23:31;89287.75;;;14.74;42.27
22649;BME280;11491;41.942;24.220;2023-04-15T16:25:58;89287.72;;;14.67;42.23
22649;BME280;11491;41.942;24.220;2023-04-15T16:28:26;89287.72;;;14.60;42.79
22649;BME280;11491;41.942;24.220;2023-04-15T16:30:52;89284.22;;;14.52;41.85
22649;BME280;11491;41.942;24.220;2023-04-15T16:33:27;89291.56;;;14.59;44.04
22649;BME280;11491;41.942;24.220;2023-04-15T16:36:08;89277.66;;;14.42;52.91
22649;BME280;11491;41.942;24.220;2023-04-15T16:38:44;89297.28;;;14.47;58.38
22649;BME280;11491;41.942;24.220;2023-04-15T16:41:14;89309.19;;;14.38;60.62
22649;BME280;11491;41.942;24.220;2023-04-15T16:43:41;89293.34;;;14.12;62.41
22649;BME280;11491;41.942;24.220;2023-04-15T16:46:15;89307.88;;;13.96;64.04
22649;BME280;11491;41.942;24.220;2023-04-15T17:06:56;89281.31;;;12.66;66.76
22649;BME280;11491;41.942;24.220;2023-04-15T17:09:30;89325.94;;;12.89;67.01
22649;BME280;11491;41.942;24.220;2023-04-15T17:12:32;89273.38;;;12.33;67.57
22649;BME280;11491;41.942;24.220;2023-04-15T17:15:09;89326.41;;;12.54;69.03
22649;BME280;11491;41.942;24.220;2023-04-15T17:17:36;89256.91;;;11.97;69.43
22649;BME280;11491;41.942;24.220;2023-04-15T17:20:09;89213.59;;;11.54;70.18
22649;BME280;11491;41.942;24.220;2023-04-15T17:22:52;89320.47;;;12.34;70.31
22649;BME280;11491;41.942;24.220;2023-04-15T17:25:21;89343.94;;;12.44;71.26
22649;BME280;11491;41.942;24.220;2023-04-15T17:27:48;89349.28;;;12.44;72.02
22649;BME280;11491;41.942;24.220;2023-04-15T17:30:31;89338.59;;;12.10;71.28
22649;BME280;11491;41.942;24.220;2023-04-15T17:32:58;89308.66;;;12.04;68.88
22649;BME280;11491;41.942;24.220;2023-04-15T17:35:26;89294.56;;;11.77;68.09
22649;BME280;11491;41.942;24.220;2023-04-15T17:37:57;89361.28;;;11.90;67.55
22649;BME280;11491;41.942;24.220;2023-04-15T17:40:27;89359.56;;;11.74;69.82
22649;BME280;11491;41.942;24.220;2023-04-15T17:42:53;89365.19;;;11.66;68.99
22649;BME280;11491;41.942;24.220;2023-04-15T17:45:20;89369.16;;;11.22;67.33
22649;BME280;11491;41.942;24.220;2023-04-15T17:47:51;89374.63;;;11.29;67.71
22649;BME280;11491;41.942;24.220;2023-04-15T17:50:20;89381.41;;;11.23;67.25
22649;BME280;11491;41.942;24.220;2023-04-15T17:53:05;89377.06;;;11.15;67.53
22649;BME280;11491;41.942;24.220;2023-04-15T17:55:40;89381.91;;;11.06;66.41
22649;BME280;11491;41.942;24.220;2023-04-15T17:58:08;89387.75;;;10.88;66.98
22649;BME280;11491;41.942;24.220;2023-04-15T18:00:35;89393.59;;;10.97;66.07
22649;BME280;11491;41.942;24.220;2023-04-15T18:03:01;89391.09;;;10.85;67.22
22649;BME280;11491;41.942;24.220;2023-04-15T18:05:28;89395.38;;;10.90;67.02
22649;BME280;11491;41.942;24.220;2023-04-15T18:07:55;89402.34;;;10.94;66.95
22649;BME280;11491;41.942;24.220;2023-04-15T18:10:23;89400.56;;;10.79;66.26
22649;BME280;11491;41.942;24.220;2023-04-15T18:12:50;89392.72;;;10.67;67.43
22649;BME280;11491;41.942;24.220;2023-04-15T18:15:17;89404.91;;;10.64;65.93
22649;BME280;11491;41.942;24.220;2023-04-15T18:17:44;89415.69;;;10.48;67.20
22649;BME280;11491;41.942;24.220;2023-04-15T18:20:11;89414.56;;;10.49;65.90
22649;BME280;11491;41.942;24.220;2023-04-15T18:22:38;89421.25;;;10.40;66.22
22649;BME280;11491;41.942;24.220;2023-04-15T18:25:06;89427.00;;;10.22;68.31
22649;BME280;11491;41.942;24.220;2023-04-15T18:27:35;89418.91;;;10.19;68.56
22649;BME280;11491;41.942;24.220;2023-04-15T18:30:05;89419.47;;;10.08;68.23
22649;BME280;11491;41.942;24.220;2023-04-15T18:32:32;89393.03;;;10.03;66.73
22649;BME280;11491;41.942;24.220;2023-04-15T18:34:59;89422.69;;;9.98;67.87
22649;BME280;11491;41.942;24.220;2023-04-15T18:37:26;89413.63;;;10.03;66.98
22649;BME280;11491;41.942;24.220;2023-04-15T18:39:56;89434.56;;;10.01;68.45
22649;BME280;11491;41.942;24.220;2023-04-15T18:42:23;89429.31;;;9.49;67.29
22649;BME280;11491;41.942;24.220;2023-04-15T18:44:52;89431.31;;;9.37;68.56
22649;BME280;11491;41.942;24.220;2023-04-15T18:47:18;89428.47;;;9.30;68.02
22649;BME280;11491;41.942;24.220;2023-04-15T18:49:45;89435.13;;;9.20;69.59
22649;BME280;11491;41.942;24.220;2023-04-15T18:52:12;89435.81;;;9.01;70.70
22649;BME280;11491;41.942;24.220;2023-04-15T18:54:39;89445.69;;;9.16;70.17
22649;BME280;11491;41.942;24.220;2023-04-15T18:57:05;89439.25;;;9.17;70.44
22649;BME280;11491;41.942;24.220;2023-04-15T18:59:33;89433.06;;;9.13;69.39
22649;BME280;11491;41.942;24.220;2023-04-15T19:02:01;89440.38;;;9.00;70.36
22649;BME280;11491;41.942;24.220;2023-04-15T19:04:30;89445.00;;;9.03;70.94
22649;BME280;11491;41.942;24.220;2023-04-15T19:06:57;89431.50;;;9.12;69.45
22649;BME280;11491;41.942;24.220;2023-04-15T19:09:24;89444.25;;;9.03;70.37
22649;BME280;11491;41.942;24.220;2023-04-15T19:11:51;89442.34;;;8.88;71.58
22649;BME280;11491;41.942;24.220;2023-04-15T19:14:17;89447.88;;;8.95;69.90
22649;BME280;11491;41.942;24.220;2023-04-15T19:16:44;89436.50;;;8.82;71.16
22649;BME280;11491;41.942;24.220;2023-04-15T19:19:12;89439.25;;;8.86;70.50
22649;BME280;11491;41.942;24.220;2023-04-15T19:21:39;89442.06;;;8.77;71.16
22649;BME280;11491;41.942;24.220;2023-04-15T19:24:06;89446.38;;;8.81;70.46
22649;BME280;11491;41.942;24.220;2023-04-15T19:26:33;89443.00;;;8.69;71.44
22649;BME280;11491;41.942;24.220;2023-04-15T19:29:01;89435.72;;;8.66;71.57
22649;BME280;11491;41.942;24.220;2023-04-15T19:31:27;89438.88;;;8.71;70.80
22649;BME280;11491;41.942;24.220;2023-04-15T19:33:54;89433.63;;;8.59;70.24
22649;BME280;11491;41.942;24.220;2023-04-15T19:36:22;89433.69;;;8.47;72.34
22649;BME280;11491;41.942;24.220;2023-04-15T19:38:49;89429.78;;;8.28;71.75
22649;BME280;11491;41.942;24.220;2023-04-15T19:41:16;89429.78;;;8.28;71.09
22649;BME280;11491;41.942;24.220;2023-04-15T19:43:43;89436.38;;;8.34;71.99
22649;BME280;11491;41.942;24.220;2023-04-15T19:46:09;89437.97;;;8.35;71.09
22649;BME280;11491;41.942;24.220;2023-04-15T19:48:37;89434.28;;;8.12;72.64
22649;BME280;11491;41.942;24.220;2023-04-15T19:51:04;89435.94;;;8.16;72.19
22649;BME280;11491;41.942;24.220;2023-04-15T19:53:33;89437.38;;;8.14;71.61
22649;BME280;11491;41.942;24.220;2023-04-15T19:55:59;89437.38;;;8.14;71.37
22649;BME280;11491;41.942;24.220;2023-04-15T19:58:26;89433.66;;;8.03;72.55
22649;BME280;11491;41.942;24.220;2023-04-15T20:00:53;89431.41;;;8.05;71.84
22649;BME280;11491;41.942;24.220;2023-04-15T20:03:20;89437.88;;;8.04;72.18
22649;BME280;11491;41.942;24.220;2023-04-15T20:05:46;89431.94;;;7.82;72.58
22649;BME280;11491;41.942;24.220;2023-04-15T20:08:13;89440.09;;;8.02;72.22
22649;BME280;11491;41.942;24.220;2023-04-15T20:10:41;89440.00;;;7.98;72.10
22649;BME280;11491;41.942;24.220;2023-04-15T20:13:08;89435.25;;;7.91;72.46
22649;BME280;11491;41.942;24.220;2023-04-15T20:15:35;89434.19;;;7.80;73.49
22649;BME280;11491;41.942;24.220;2023-04-15T20:18:02;89429.31;;;7.70;74.29
22649;BME280;11491;41.942;24.220;2023-04-15T20:20:29;89440.16;;;7.77;71.57
22649;BME280;11491;41.942;24.220;2023-04-15T20:22:55;89439.50;;;7.80;72.03
22649;BME280;11491;41.942;24.220;2023-04-15T20:25:22;89439.88;;;7.94;71.34
22649;BME280;11491;41.942;24.220;2023-04-15T20:27:50;89452.03;;;7.67;73.45
22649;BME280;11491;41.942;24.220;2023-04-15T20:30:17;89448.28;;;7.68;72.72
22649;BME280;11491;41.942;24.220;2023-04-15T20:32:44;89457.72;;;7.66;73.08